createdAt,value
2023-01-11T00:00:15.441Z,100236.52
2023-01-11T00:03:05.514Z,100230.92
2023-01-11T00:05:39.709Z,100226.16
2023-01-11T00:08:09.063Z,100226.60
2023-01-11T00:10:38.034Z,100223.85
2023-01-11T00:13:07.291Z,100223.44
2023-01-11T00:15:37.497Z,100217.89
2023-01-11T00:18:07.951Z,100215.55
2023-01-11T00:20:40.650Z,100218.52
2023-01-11T00:23:10.015Z,100215.20
2023-01-11T00:25:38.929Z,100213.28
2023-01-11T00:28:07.750Z,100212.15
2023-01-11T00:30:36.818Z,100210.88
2023-01-11T00:33:05.652Z,100210.30
2023-01-11T00:35:34.381Z,100205.90
2023-01-11T00:38:03.532Z,100207.12
2023-01-11T00:40:32.437Z,100210.63
2023-01-11T00:43:19.588Z,100211.24
2023-01-11T00:46:15.293Z,100214.45
2023-01-11T00:48:44.211Z,100209.88
2023-01-11T00:51:13.075Z,100212.14
2023-01-11T00:53:41.764Z,100213.70
2023-01-11T00:56:10.625Z,100218.20
2023-01-11T00:58:39.338Z,100216.27
2023-01-11T01:01:08.539Z,100216.85
2023-01-11T01:03:37.181Z,100221.55
2023-01-11T01:06:06.481Z,100221.85
2023-01-11T01:08:35.823Z,100230.45
2023-01-11T01:11:04.489Z,100227.71
2023-01-11T01:13:51.840Z,100225.02
2023-01-11T01:16:20.795Z,100221.12
2023-01-11T01:18:51.663Z,100215.64
2023-01-11T01:21:21.352Z,100218.65
2023-01-11T01:23:52.090Z,100217.70
2023-01-11T01:26:20.793Z,100218.88
2023-01-11T01:28:49.987Z,100212.50
2023-01-11T01:31:18.888Z,100211.63
2023-01-11T01:33:47.743Z,100212.84
2023-01-11T01:36:16.525Z,100210.59
2023-01-11T01:38:45.264Z,100207.66
2023-01-11T01:41:14.566Z,100212.19
2023-01-11T01:43:50.361Z,100216.65
2023-01-11T01:46:20.808Z,100216.73
2023-01-11T01:48:56.250Z,100210.48
2023-01-11T01:51:31.506Z,100209.94
2023-01-11T01:54:05.875Z,100209.77
2023-01-11T01:56:42.301Z,100210.73
2023-01-11T01:59:15.012Z,100207.36
2023-01-11T02:01:47.823Z,100202.39
2023-01-11T02:04:23.023Z,100199.26
2023-01-11T02:06:57.541Z,100194.41
2023-01-11T02:09:32.647Z,100192.71
2023-01-11T02:12:01.872Z,100193.64
2023-01-11T02:14:32.046Z,100190.38
2023-01-11T02:17:00.888Z,100191.32
2023-01-11T02:19:48.658Z,100193.92
2023-01-11T02:22:53.255Z,100191.45
2023-01-11T02:25:47.939Z,100192.71
2023-01-11T02:28:22.043Z,100188.98
2023-01-11T02:31:00.802Z,100186.61
2023-01-11T02:33:37.949Z,100180.60
2023-01-11T02:36:14.153Z,100180.20
2023-01-11T02:38:47.491Z,100177.70
2023-01-11T02:41:25.185Z,100176.57
2023-01-11T02:44:18.891Z,100170.65
2023-01-11T02:46:52.716Z,100173.04
2023-01-11T02:49:31.270Z,100179.06
2023-01-11T02:52:06.442Z,100180.17
2023-01-11T02:54:38.714Z,100181.85
2023-01-11T02:57:09.144Z,100181.56
2023-01-11T02:59:39.881Z,100184.20
2023-01-11T03:02:09.259Z,100178.20
2023-01-11T03:04:42.647Z,100177.88
2023-01-11T03:07:35.821Z,100178.08
2023-01-11T03:10:17.735Z,100175.28
2023-01-11T03:12:59.018Z,100179.67
2023-01-11T03:15:47.213Z,100175.04
2023-01-11T03:18:30.712Z,100175.47
2023-01-11T03:21:07.450Z,100170.23
2023-01-11T03:23:46.101Z,100165.16
2023-01-11T03:26:29.192Z,100158.79
2023-01-11T03:29:06.184Z,100158.42
2023-01-11T03:31:39.187Z,100152.81
2023-01-11T03:34:15.794Z,100148.95
2023-01-11T03:36:53.243Z,100148.60
2023-01-11T03:39:29.111Z,100150.65
2023-01-11T03:42:01.275Z,100142.84
2023-01-11T03:44:31.418Z,100141.95
2023-01-11T03:47:05.421Z,100138.98
2023-01-11T03:49:37.510Z,100141.09
2023-01-11T03:52:11.983Z,100136.58
2023-01-11T03:54:42.404Z,100140.29
2023-01-11T03:57:16.220Z,100137.10
2023-01-11T03:59:45.741Z,100137.23
2023-01-11T04:02:19.147Z,100137.01
2023-01-11T04:04:48.399Z,100133.39
2023-01-11T04:07:18.092Z,100132.71
2023-01-11T04:09:46.868Z,100133.09
2023-01-11T04:12:15.979Z,100131.54
2023-01-11T04:14:44.701Z,100127.05
2023-01-11T04:17:13.697Z,100119.27
2023-01-11T04:19:42.428Z,100118.07
2023-01-11T04:22:11.292Z,100116.26
2023-01-11T04:24:39.946Z,100115.58
2023-01-11T04:27:08.621Z,100111.46
2023-01-11T04:29:37.122Z,100112.15
2023-01-11T04:32:06.195Z,100110.16
2023-01-11T04:34:34.924Z,100111.30
2023-01-11T04:37:03.805Z,100106.67
2023-01-11T04:39:32.557Z,100100.96
2023-01-11T04:42:19.869Z,100099.02
2023-01-11T04:44:50.168Z,100101.17
2023-01-11T04:47:21.179Z,100101.77
2023-01-11T04:49:50.578Z,100100.38
2023-01-11T04:52:20.574Z,100102.50
2023-01-11T04:54:51.762Z,100100.60
2023-01-11T04:57:21.023Z,100104.86
2023-01-11T04:59:50.136Z,100107.19
2023-01-11T05:02:18.892Z,100107.81
2023-01-11T05:04:47.727Z,100103.70
2023-01-11T05:07:16.520Z,100101.27
2023-01-11T05:09:45.608Z,100100.48
2023-01-11T05:12:14.592Z,100097.17
2023-01-11T05:14:43.485Z,100100.69
2023-01-11T05:17:15.193Z,100100.90
2023-01-11T05:19:44.016Z,100099.91
2023-01-11T05:22:12.757Z,100096.42
2023-01-11T05:24:43.864Z,100093.98
2023-01-11T05:27:12.859Z,100090.52
2023-01-11T05:29:43.704Z,100093.00
2023-01-11T05:32:15.342Z,100089.56
2023-01-11T05:34:46.593Z,100083.34
2023-01-11T05:37:15.380Z,100082.23
2023-01-11T05:39:53.621Z,100077.52
2023-01-11T05:42:25.776Z,100075.85
2023-01-11T05:45:25.513Z,100072.71
2023-01-11T05:48:05.771Z,100067.60
2023-01-11T05:50:51.263Z,100061.48
2023-01-11T05:53:24.074Z,100060.55
2023-01-11T05:55:57.058Z,100052.61
2023-01-11T05:58:30.788Z,100049.95
2023-01-11T06:01:03.431Z,100053.38
2023-01-11T06:03:52.847Z,100050.38
2023-01-11T06:06:22.585Z,100051.28
2023-01-11T06:08:51.698Z,100047.88
2023-01-11T06:11:24.220Z,100045.48
2023-01-11T06:14:07.398Z,100043.92
2023-01-11T06:16:49.424Z,100040.75
2023-01-11T06:19:23.231Z,100042.39
2023-01-11T06:22:11.816Z,100048.05
2023-01-11T06:25:00.769Z,100046.89
2023-01-11T06:27:38.604Z,100039.77
2023-01-11T06:30:13.006Z,100037.76
2023-01-11T06:32:41.880Z,100039.23
2023-01-11T06:35:23.886Z,100039.16
2023-01-11T06:38:07.437Z,100043.58
2023-01-11T06:40:36.645Z,100037.72
2023-01-11T06:43:26.700Z,100031.40
2023-01-11T06:46:16.684Z,100029.29
2023-01-11T06:49:01.490Z,100028.23
2023-01-11T06:51:47.883Z,100024.21
2023-01-11T06:54:26.775Z,100023.16
2023-01-11T06:57:03.345Z,100019.81
2023-01-11T06:59:43.719Z,100016.45
2023-01-11T07:02:12.702Z,100012.55
2023-01-11T07:04:50.947Z,100012.50
2023-01-11T07:07:20.151Z,100004.59
2023-01-11T07:09:59.339Z,100004.91
2023-01-11T07:12:48.404Z,100006.38
2023-01-11T07:15:30.673Z,100010.61
2023-01-11T07:18:20.180Z,100013.89
2023-01-11T07:20:52.363Z,100013.98
2023-01-11T07:23:23.483Z,100015.61
2023-01-11T07:25:52.506Z,100020.08
2023-01-11T07:28:35.718Z,100017.31
2023-01-11T07:31:07.628Z,100007.62
2023-01-11T07:33:56.681Z,100004.10
2023-01-11T07:36:27.376Z,100002.88
2023-01-11T07:39:08.551Z,100005.15
2023-01-11T07:42:26.806Z,100008.95
2023-01-11T07:45:12.122Z,100008.48
2023-01-11T07:48:01.390Z,100005.12
2023-01-11T07:50:33.921Z,100000.76
2023-01-11T07:53:06.193Z,100002.84
2023-01-11T07:55:48.917Z,100003.24
2023-01-11T07:58:17.700Z,100004.77
2023-01-11T08:00:51.918Z,100004.31
2023-01-11T08:03:20.953Z,100004.09
2023-01-11T08:05:53.797Z,100006.05
2023-01-11T08:08:22.799Z,100001.47
2023-01-11T08:11:07.192Z,100001.19
2023-01-11T08:13:58.870Z,99994.27
2023-01-11T08:16:41.997Z,99992.67
2023-01-11T08:19:24.573Z,99990.56
2023-01-11T08:22:00.771Z,99987.32
2023-01-11T08:24:40.313Z,99981.40
2023-01-11T08:27:23.990Z,99978.10
2023-01-11T08:30:06.082Z,99970.83
2023-01-11T08:32:41.044Z,99964.39
2023-01-11T08:35:32.604Z,99968.53
2023-01-11T08:38:21.683Z,99963.46
2023-01-11T08:40:59.364Z,99964.20
2023-01-11T08:43:30.912Z,99961.75
2023-01-11T08:46:05.704Z,99961.89
2023-01-11T08:48:37.483Z,99970.56
2023-01-11T08:51:26.774Z,99971.05
2023-01-11T08:53:55.833Z,99973.30
2023-01-11T08:56:45.127Z,99971.20
2023-01-11T08:59:34.317Z,99969.40
2023-01-11T09:02:06.868Z,99966.36
2023-01-11T09:04:49.944Z,99968.23
2023-01-11T09:07:30.259Z,99975.19
2023-01-11T09:10:12.700Z,99971.02
2023-01-11T09:13:01.740Z,99979.17
2023-01-11T09:15:54.486Z,99979.91
2023-01-11T09:18:36.285Z,99978.83
2023-01-11T09:21:16.742Z,99970.05
2023-01-11T09:24:06.999Z,99965.23
2023-01-11T09:26:58.535Z,99965.85
2023-01-11T09:29:38.245Z,99965.26
2023-01-11T09:32:10.511Z,99962.31
2023-01-11T09:35:00.580Z,99963.31
2023-01-11T09:37:40.726Z,99959.56
2023-01-11T09:40:17.837Z,99961.39
2023-01-11T09:42:52.107Z,99958.36
2023-01-11T09:45:23.420Z,99952.59
2023-01-11T09:48:03.476Z,99951.67
2023-01-11T09:50:40.684Z,99946.63
2023-01-11T09:53:36.584Z,99941.69
2023-01-11T09:56:25.139Z,99931.98
2023-01-11T09:59:24.107Z,99931.38
2023-01-11T10:02:24.023Z,99929.72
2023-01-11T10:05:38.573Z,99924.08
2023-01-11T10:18:22.844Z,99894.89
2023-01-11T10:18:57.911Z,99887.88
2023-01-11T10:21:32.132Z,99880.54
2023-01-11T10:24:06.791Z,99879.81
2023-01-11T10:26:41.652Z,99875.42
2023-01-11T10:29:45.611Z,99874.40
2023-01-11T10:33:02.636Z,99876.88
2023-01-11T10:36:09.135Z,99877.00
2023-01-11T10:39:07.383Z,99875.52
2023-01-11T10:41:51.816Z,99878.66
2023-01-11T10:44:37.296Z,99875.64
2023-01-11T10:47:31.581Z,99866.06
2023-01-11T10:50:24.101Z,99862.14
2023-01-11T10:53:16.458Z,99852.08
2023-01-11T10:56:18.537Z,99850.80
2023-01-11T10:59:25.994Z,99844.64
2023-01-11T11:02:05.652Z,99848.17
2023-01-11T11:04:53.307Z,99843.55
2023-01-11T11:07:51.916Z,99838.00
2023-01-11T11:10:42.496Z,99830.69
2023-01-11T11:13:45.449Z,99825.26
2023-01-11T11:16:49.625Z,99820.52
2023-01-11T11:19:39.486Z,99810.78
2023-01-11T11:22:20.377Z,99809.89
2023-01-11T11:24:54.496Z,99804.98
2023-01-11T11:27:47.460Z,99804.11
2023-01-11T11:30:32.805Z,99797.83
2023-01-11T11:33:16.816Z,99793.63
2023-01-11T11:35:59.389Z,99791.79
2023-01-11T11:39:09.288Z,99781.87
2023-01-11T11:42:08.621Z,99774.40
2023-01-11T11:44:42.842Z,99771.47
2023-01-11T11:47:16.171Z,99766.00
2023-01-11T11:49:46.168Z,99762.91
2023-01-11T11:52:18.728Z,99757.09
2023-01-11T11:54:55.725Z,99748.58
2023-01-11T11:57:28.450Z,99747.35
2023-01-11T12:00:25.341Z,99741.73
2023-01-11T12:03:02.627Z,99740.86
2023-01-11T12:05:52.352Z,99733.68
2023-01-11T12:08:43.350Z,99728.33
2023-01-11T12:11:35.172Z,99722.13
2023-01-11T12:14:18.694Z,99713.79
2023-01-11T12:17:24.636Z,99708.23
2023-01-11T12:20:39.337Z,99703.69
2023-01-11T12:23:28.923Z,99702.37
2023-01-11T12:26:21.443Z,99705.93
2023-01-11T12:29:35.957Z,99704.04
2023-01-11T12:32:21.056Z,99699.41
2023-01-11T12:35:22.207Z,99690.59
2023-01-11T12:38:29.775Z,99676.59
2023-01-11T12:41:50.806Z,99665.46
2023-01-11T12:44:40.947Z,99659.04
2023-01-11T12:47:56.699Z,99655.10
2023-01-11T12:51:05.010Z,99653.40
2023-01-11T12:53:50.869Z,99650.32
2023-01-11T12:56:47.746Z,99647.84
2023-01-11T12:59:29.259Z,99644.17
2023-01-11T13:02:19.682Z,99636.77
2023-01-11T13:05:24.461Z,99631.70
2023-01-11T13:08:12.605Z,99632.92
2023-01-11T13:10:59.936Z,99637.01
2023-01-11T13:13:56.773Z,99633.60
2023-01-11T13:16:31.823Z,99628.27
2023-01-11T13:19:10.539Z,99625.88
2023-01-11T13:21:52.679Z,99626.48
2023-01-11T13:24:33.717Z,99622.02
2023-01-11T13:27:24.820Z,99624.73
2023-01-11T13:29:55.865Z,99626.14
2023-01-11T13:32:32.167Z,99624.48
2023-01-11T13:35:06.877Z,99629.64
2023-01-11T13:37:44.604Z,99632.42
2023-01-11T13:40:22.446Z,99628.61
2023-01-11T13:42:59.635Z,99624.96
2023-01-11T13:46:03.120Z,99627.59
2023-01-11T13:48:42.818Z,99625.90
2023-01-11T13:51:18.994Z,99628.38
2023-01-11T13:54:16.182Z,99624.13
2023-01-11T13:57:00.096Z,99616.54
2023-01-11T13:59:56.373Z,99615.16
2023-01-11T14:02:42.123Z,99615.77
2023-01-11T14:05:17.746Z,99616.79
2023-01-11T14:08:14.556Z,99611.60
2023-01-11T14:11:10.379Z,99617.53
2023-01-11T14:14:13.782Z,99614.63
2023-01-11T14:17:07.148Z,99615.20
2023-01-11T14:19:46.204Z,99610.03
2023-01-11T14:22:39.051Z,99604.66
2023-01-11T14:25:32.433Z,99610.23
2023-01-11T14:28:37.723Z,99603.00
2023-01-11T14:31:36.132Z,99602.39
2023-01-11T14:34:43.479Z,99608.70
2023-01-11T14:38:03.967Z,99605.29
2023-01-11T14:41:30.865Z,99600.16
2023-01-11T14:44:22.943Z,99590.94
2023-01-11T14:47:39.517Z,99589.05
2023-01-11T14:50:20.780Z,99583.80
2023-01-11T14:53:15.905Z,99579.16
2023-01-11T14:56:26.055Z,99580.73
2023-01-11T14:59:25.107Z,99577.72
2023-01-11T15:02:28.355Z,99576.04
2023-01-11T15:05:34.184Z,99577.73
2023-01-11T15:08:37.608Z,99570.20
2023-01-11T15:11:40.191Z,99572.06
2023-01-11T15:14:33.756Z,99578.03
2023-01-11T15:17:45.021Z,99574.35
2023-01-11T15:20:50.386Z,99575.00
2023-01-11T15:23:22.258Z,99571.56
2023-01-11T15:26:15.008Z,99563.95
2023-01-11T15:29:05.352Z,99564.02
2023-01-11T15:31:38.785Z,99561.80
2023-01-11T15:34:40.123Z,99566.79
2023-01-11T15:37:53.498Z,99570.77
2023-01-11T15:40:46.195Z,99571.83
2023-01-11T15:43:48.027Z,99566.98
2023-01-11T15:47:13.039Z,99563.79
2023-01-11T15:50:27.896Z,99571.55
2023-01-11T15:53:37.487Z,99568.42
2023-01-11T15:56:46.537Z,99567.82
2023-01-11T16:00:06.444Z,99569.71
2023-01-11T16:03:15.369Z,99563.97
2023-01-11T16:06:07.864Z,99559.04
2023-01-11T16:09:06.635Z,99556.24
2023-01-11T16:12:10.920Z,99556.42
2023-01-11T16:15:01.754Z,99551.59
2023-01-11T16:17:51.825Z,99550.67
2023-01-11T16:20:32.407Z,99552.38
2023-01-11T16:23:20.421Z,99554.27
2023-01-11T16:26:14.172Z,99548.07
2023-01-11T16:29:12.651Z,99551.14
2023-01-11T16:31:55.351Z,99551.35
2023-01-11T16:34:49.685Z,99547.56
2023-01-11T16:37:34.746Z,99545.08
2023-01-11T16:40:21.910Z,99547.05
2023-01-11T16:43:19.911Z,99545.79
2023-01-11T16:45:53.849Z,99539.34
2023-01-11T16:48:29.226Z,99547.06
2023-01-11T16:51:23.744Z,99544.21
2023-01-11T16:54:02.096Z,99542.02
2023-01-11T16:56:46.456Z,99540.95
2023-01-11T16:59:30.093Z,99541.34
2023-01-11T17:02:30.251Z,99538.64
2023-01-11T17:05:00.271Z,99538.02
2023-01-11T17:07:29.917Z,99537.39
2023-01-11T17:10:23.076Z,99537.55
2023-01-11T17:13:50.509Z,99535.96
2023-01-11T17:16:37.757Z,99543.29
2023-01-11T17:19:17.135Z,99546.00
2023-01-11T17:22:05.073Z,99545.59
2023-01-11T17:24:54.650Z,99545.08
2023-01-11T17:27:50.268Z,99546.14
2023-01-11T17:30:34.593Z,99547.58
2023-01-11T17:33:37.188Z,99545.16
2023-01-11T17:36:16.116Z,99547.06
2023-01-11T17:38:45.430Z,99545.27
2023-01-11T17:41:31.400Z,99544.91
2023-01-11T17:44:22.189Z,99549.98
2023-01-11T17:47:12.865Z,99549.02
2023-01-11T17:50:03.220Z,99550.01
2023-01-11T17:52:54.023Z,99548.54
2023-01-11T17:55:52.212Z,99550.64
2023-01-11T17:58:34.770Z,99546.55
2023-01-11T18:01:20.174Z,99546.66
2023-01-11T18:04:19.162Z,99548.58
2023-01-11T18:07:15.303Z,99553.31
2023-01-11T18:10:00.413Z,99550.29
2023-01-11T18:12:51.813Z,99543.04
2023-01-11T18:15:31.607Z,99538.98
2023-01-11T18:18:42.323Z,99534.80
2023-01-11T18:21:39.431Z,99535.67
2023-01-11T18:24:42.465Z,99539.03
2023-01-11T18:27:31.743Z,99535.66
2023-01-11T18:30:38.724Z,99537.73
2023-01-11T18:33:30.182Z,99538.47
2023-01-11T18:36:22.208Z,99538.12
2023-01-11T18:39:11.571Z,99536.85
2023-01-11T18:42:09.652Z,99536.79
2023-01-11T18:44:42.494Z,99532.04
2023-01-11T18:47:16.494Z,99532.08
2023-01-11T18:49:45.911Z,99533.31
2023-01-11T18:52:28.807Z,99534.05
2023-01-11T18:55:09.925Z,99537.06
2023-01-11T18:57:48.563Z,99539.16
2023-01-11T19:00:41.063Z,99545.48
2023-01-11T19:06:05.439Z,99554.15
2023-01-11T19:08:54.755Z,99560.93
2023-01-11T19:11:44.178Z,99562.14
2023-01-11T19:14:33.705Z,99562.23
2023-01-11T19:17:15.143Z,99562.52
2023-01-11T19:20:08.555Z,99562.71
2023-01-11T19:22:57.829Z,99571.60
2023-01-11T19:25:41.562Z,99574.10
2023-01-11T19:28:10.380Z,99579.11
2023-01-11T19:30:45.358Z,99580.54
2023-01-11T19:33:24.088Z,99574.65
2023-01-11T19:36:13.274Z,99568.33
2023-01-11T19:38:52.563Z,99560.66
2023-01-11T19:42:01.508Z,99567.88
2023-01-11T19:44:38.217Z,99561.33
2023-01-11T19:47:11.408Z,99566.48
2023-01-11T19:49:58.318Z,99569.80
2023-01-11T19:52:29.673Z,99572.91
2023-01-11T19:55:11.566Z,99567.93
2023-01-11T19:57:44.220Z,99576.11
2023-01-11T20:00:23.682Z,99572.13
2023-01-11T20:03:11.727Z,99582.73
2023-01-11T20:06:07.558Z,99583.52
2023-01-11T20:08:57.032Z,99578.14
2023-01-11T20:11:48.748Z,99582.61
2023-01-11T20:14:39.986Z,99582.83
2023-01-11T20:17:29.263Z,99586.90
2023-01-11T20:20:18.729Z,99592.33
2023-01-11T20:23:01.220Z,99595.77
2023-01-11T20:25:50.499Z,99600.27
2023-01-11T20:28:39.536Z,99598.96
2023-01-11T20:31:32.441Z,99597.77
2023-01-11T20:34:22.104Z,99595.27
2023-01-11T20:37:11.403Z,99590.70
2023-01-11T20:40:00.310Z,99590.85
2023-01-11T20:42:49.573Z,99588.04
2023-01-11T20:45:18.549Z,99592.38
2023-01-11T20:47:47.260Z,99593.70
2023-01-11T20:50:17.090Z,99598.40
2023-01-11T20:52:47.790Z,99601.02
2023-01-11T20:55:29.863Z,99604.50
2023-01-11T20:58:19.144Z,99606.20
2023-01-11T21:01:09.812Z,99608.94
2023-01-11T21:04:01.390Z,99610.07
2023-01-11T21:06:45.563Z,99617.30
2023-01-11T21:09:15.823Z,99617.39
2023-01-11T21:11:55.624Z,99625.58
2023-01-11T21:14:44.927Z,99630.73
2023-01-11T21:17:16.463Z,99633.63
2023-01-11T21:19:45.698Z,99635.45
2023-01-11T21:22:17.501Z,99640.30
2023-01-11T21:24:55.296Z,99644.30
2023-01-11T21:27:44.213Z,99646.36
2023-01-11T21:30:22.636Z,99650.81
2023-01-11T21:32:57.727Z,99653.49
2023-01-11T21:35:33.487Z,99656.22
2023-01-11T21:38:07.582Z,99659.34
2023-01-11T21:40:45.893Z,99663.75
2023-01-11T21:43:16.862Z,99661.52
2023-01-11T21:45:55.198Z,99666.20
2023-01-11T21:48:24.086Z,99671.80
2023-01-11T21:51:12.743Z,99672.80
2023-01-11T21:53:45.880Z,99671.61
2023-01-11T21:56:20.305Z,99674.62
2023-01-11T21:58:49.930Z,99671.29
2023-01-11T22:01:31.005Z,99675.21
2023-01-11T22:04:21.287Z,99677.90
2023-01-11T22:06:54.008Z,99682.91
2023-01-11T22:09:26.650Z,99679.73
2023-01-11T22:12:05.917Z,99681.80
2023-01-11T22:14:43.776Z,99682.05
2023-01-11T22:17:12.461Z,99683.39
2023-01-11T22:19:41.355Z,99682.98
2023-01-11T22:22:19.280Z,99688.20
2023-01-11T22:24:57.160Z,99688.11
2023-01-11T22:27:29.202Z,99692.39
2023-01-11T22:30:00.709Z,99692.83
2023-01-11T22:32:32.946Z,99697.23
2023-01-11T22:35:01.743Z,99701.48
2023-01-11T22:37:33.420Z,99704.44
2023-01-11T22:40:10.072Z,99712.30
2023-01-11T22:42:41.822Z,99711.75
2023-01-11T22:45:12.264Z,99713.25
2023-01-11T22:47:40.836Z,99711.45
2023-01-11T22:50:11.259Z,99714.37
2023-01-11T22:52:40.356Z,99716.69
2023-01-11T22:55:10.305Z,99714.03
2023-01-11T22:57:42.444Z,99718.29
2023-01-11T23:00:14.435Z,99718.55
2023-01-11T23:02:43.258Z,99721.59
2023-01-11T23:05:12.186Z,99718.67
2023-01-11T23:07:43.232Z,99720.83
2023-01-11T23:10:15.779Z,99722.09
2023-01-11T23:13:03.136Z,99720.78
2023-01-11T23:15:31.913Z,99718.25
2023-01-11T23:18:00.912Z,99716.95
2023-01-11T23:20:29.626Z,99718.60
2023-01-11T23:23:01.120Z,99718.11
2023-01-11T23:25:30.047Z,99719.22
2023-01-11T23:27:58.700Z,99720.45
2023-01-11T23:30:27.923Z,99720.12
2023-01-11T23:32:56.724Z,99718.52
2023-01-11T23:35:25.418Z,99718.00
2023-01-11T23:37:55.443Z,99718.14
2023-01-11T23:40:24.272Z,99713.86
2023-01-11T23:42:58.730Z,99713.48
2023-01-11T23:45:27.419Z,99716.84
2023-01-11T23:47:56.320Z,99723.14
2023-01-11T23:50:25.327Z,99731.12
2023-01-11T23:52:54.565Z,99732.59
2023-01-11T23:55:26.329Z,99736.20
2023-01-11T23:58:08.768Z,99733.77
